createdAt,value
2019-02-19T00:00:45.734Z,12.93
2019-02-19T00:03:34.862Z,13.57
2019-02-19T00:06:23.160Z,14.33
2019-02-19T00:09:14.081Z,13.63
2019-02-19T00:12:02.531Z,13.77
2019-02-19T00:14:52.565Z,13.63
2019-02-19T00:17:41.252Z,14.30
2019-02-19T00:20:29.872Z,14.30
2019-02-19T00:23:19.403Z,13.83
2019-02-19T00:26:18.050Z,13.87
2019-02-19T00:29:15.879Z,13.70
2019-02-19T00:32:11.371Z,14.70
2019-02-19T00:35:06.864Z,15.37
2019-02-19T00:38:00.041Z,14.20
2019-02-19T00:40:45.272Z,14.40
2019-02-19T00:43:38.718Z,14.30
2019-02-19T00:46:26.390Z,14.80
2019-02-19T00:49:14.894Z,15.23
2019-02-19T00:52:02.836Z,15.60
2019-02-19T00:54:52.533Z,14.13
2019-02-19T01:00:35.308Z,13.77
2019-02-19T01:03:25.593Z,14.97
2019-02-19T01:06:15.927Z,14.90
2019-02-19T01:09:05.432Z,13.80
2019-02-19T01:15:30.763Z,13.73
2019-02-19T01:28:10.667Z,13.37
2019-02-19T01:31:03.135Z,13.97
2019-02-19T01:34:27.916Z,12.77
2019-02-19T01:37:24.076Z,12.37
2019-02-19T01:43:24.398Z,12.70
2019-02-19T01:46:19.828Z,12.97
2019-02-19T01:49:51.831Z,12.60
2019-02-19T01:52:23.785Z,12.70
2019-02-19T01:55:24.393Z,11.83
2019-02-19T01:58:20.438Z,12.20
2019-02-19T02:01:19.413Z,12.77
2019-02-19T02:04:16.780Z,12.17
2019-02-19T02:07:04.697Z,12.13
2019-02-19T02:13:14.695Z,12.27
2019-02-19T02:16:03.587Z,11.67
2019-02-19T02:18:54.675Z,10.90
2019-02-19T02:21:46.797Z,12.60
2019-02-19T02:24:40.141Z,13.20
2019-02-19T02:30:48.386Z,12.10
2019-02-19T02:33:38.222Z,12.07
2019-02-19T02:36:28.517Z,12.03
2019-02-19T02:39:21.590Z,11.87
2019-02-19T02:42:10.817Z,12.00
2019-02-19T02:44:58.574Z,11.97
2019-02-19T02:47:55.354Z,11.63
2019-02-19T02:50:43.131Z,12.00
2019-02-19T02:53:36.645Z,12.17
2019-02-19T02:56:25.001Z,12.80
2019-02-19T02:59:14.660Z,12.43
2019-02-19T03:02:04.915Z,11.90
2019-02-19T03:04:57.921Z,12.27
2019-02-19T03:13:57.258Z,13.23
2019-02-19T03:16:48.727Z,12.80
2019-02-19T03:19:38.549Z,12.80
2019-02-19T03:22:28.310Z,13.10
2019-02-19T03:25:19.506Z,13.37
2019-02-19T03:28:19.557Z,12.53
2019-02-19T03:31:18.624Z,12.93
2019-02-19T03:59:05.218Z,12.97
2019-02-19T04:01:56.535Z,13.20
2019-02-19T04:22:01.557Z,14.73
2019-02-19T04:25:05.023Z,14.83
2019-02-19T04:27:56.430Z,14.97
2019-02-19T04:30:45.119Z,14.57
2019-02-19T04:33:34.479Z,15.17
2019-02-19T04:36:22.582Z,14.57
2019-02-19T04:39:12.489Z,14.77
2019-02-19T04:45:25.945Z,15.00
2019-02-19T04:48:14.873Z,14.87
2019-02-19T04:51:03.430Z,15.57
2019-02-19T04:53:56.099Z,15.23
2019-02-19T04:56:44.168Z,14.80
2019-02-19T04:59:32.163Z,15.23
2019-02-19T05:02:19.977Z,14.93
2019-02-19T05:05:17.290Z,15.20
2019-02-19T05:08:07.266Z,15.83
2019-02-19T05:10:54.985Z,16.57
2019-02-19T05:13:43.423Z,15.10
2019-02-19T05:16:40.536Z,15.20
2019-02-19T05:19:25.433Z,15.03
2019-02-19T05:22:13.447Z,15.63
2019-02-19T05:25:03.297Z,15.80
2019-02-19T05:27:56.262Z,15.37
2019-02-19T05:30:49.771Z,16.07
2019-02-19T05:33:38.228Z,14.97
2019-02-19T05:36:37.363Z,15.77
2019-02-19T05:39:26.080Z,14.37
2019-02-19T05:42:22.724Z,14.43
2019-02-19T05:45:12.238Z,15.20
2019-02-19T05:48:00.679Z,16.10
2019-02-19T05:50:55.016Z,16.20
2019-02-19T05:57:13.543Z,14.93
2019-02-19T06:00:02.323Z,15.33
2019-02-19T06:02:53.828Z,15.47
2019-02-19T06:05:49.811Z,15.73
2019-02-19T06:08:38.785Z,16.17
2019-02-19T06:14:20.774Z,15.80
2019-02-19T06:17:09.120Z,15.80
2019-02-19T06:19:57.561Z,15.63
2019-02-19T06:22:46.186Z,15.03
2019-02-19T06:25:35.039Z,15.87
2019-02-19T06:28:23.136Z,16.97
2019-02-19T06:31:11.426Z,15.83
2019-02-19T06:33:59.235Z,16.50
2019-02-19T06:36:47.239Z,15.67
2019-02-19T06:39:35.844Z,15.10
2019-02-19T06:42:23.888Z,15.60
2019-02-19T06:45:11.839Z,15.67
2019-02-19T06:48:00.004Z,15.80
2019-02-19T06:50:49.011Z,15.93
2019-02-19T06:53:37.913Z,16.53
2019-02-19T06:56:34.841Z,15.87
2019-02-19T06:59:24.955Z,15.83
2019-02-19T07:02:29.364Z,16.17
2019-02-19T07:05:27.171Z,16.13
2019-02-19T07:11:27.570Z,15.90
2019-02-19T07:14:16.158Z,16.00
2019-02-19T07:21:03.435Z,17.23
2019-02-19T07:24:04.218Z,16.67
2019-02-19T07:26:49.945Z,16.33
2019-02-19T07:29:37.794Z,17.10
2019-02-19T07:32:25.741Z,16.37
2019-02-19T07:35:13.554Z,16.27
2019-02-19T07:38:02.138Z,16.17
2019-02-19T07:40:50.600Z,15.70
2019-02-19T07:43:39.992Z,16.77
2019-02-19T07:46:31.620Z,15.60
2019-02-19T07:49:20.111Z,16.43
2019-02-19T07:52:11.088Z,15.43
2019-02-19T07:54:59.622Z,15.60
2019-02-19T07:57:47.070Z,16.43
2019-02-19T08:00:35.226Z,15.50
2019-02-19T08:03:23.310Z,15.97
2019-02-19T08:06:10.752Z,16.17
2019-02-19T08:08:59.100Z,14.33
2019-02-19T08:11:46.472Z,15.03
2019-02-19T08:14:34.976Z,15.03
2019-02-19T08:17:22.874Z,14.90
2019-02-19T08:20:15.691Z,14.10
2019-02-19T08:23:00.116Z,14.73
2019-02-19T08:25:48.436Z,15.30
2019-02-19T08:28:36.163Z,15.17
2019-02-19T08:31:23.968Z,14.43
2019-02-19T08:34:14.443Z,13.77
2019-02-19T08:37:02.319Z,13.93
2019-02-19T08:39:51.226Z,13.50
2019-02-19T08:42:39.515Z,13.97
2019-02-19T08:45:27.409Z,13.63
2019-02-19T08:48:15.737Z,12.90
2019-02-19T08:51:03.899Z,11.27
2019-02-19T08:53:52.305Z,12.20
2019-02-19T08:56:40.611Z,11.20
2019-02-19T08:59:32.437Z,10.83
2019-02-19T09:02:21.026Z,9.90
2019-02-19T09:05:08.839Z,9.47
2019-02-19T09:08:00.055Z,9.70
2019-02-19T09:10:55.543Z,9.00
2019-02-19T09:13:43.982Z,8.83
2019-02-19T09:16:32.993Z,9.23
2019-02-19T09:19:20.761Z,8.57
2019-02-19T09:22:08.678Z,8.87
2019-02-19T09:24:56.897Z,8.37
2019-02-19T09:27:44.965Z,8.43
2019-02-19T09:30:33.272Z,7.63
2019-02-19T09:33:21.062Z,8.10
2019-02-19T09:36:09.891Z,7.70
2019-02-19T09:38:58.253Z,8.00
2019-02-19T09:41:45.890Z,8.00
2019-02-19T09:44:34.378Z,7.87
2019-02-19T09:47:23.014Z,6.93
2019-02-19T09:50:11.158Z,7.43
2019-02-19T09:53:00.268Z,7.30
2019-02-19T09:55:49.066Z,6.83
2019-02-19T09:58:36.466Z,7.10
2019-02-19T10:01:24.797Z,7.73
2019-02-19T10:04:13.042Z,6.60
2019-02-19T10:07:01.430Z,6.60
2019-02-19T10:09:49.053Z,6.07
2019-02-19T10:12:37.247Z,6.43
2019-02-19T10:15:25.173Z,6.67
2019-02-19T10:18:13.241Z,6.17
2019-02-19T10:21:01.042Z,6.27
2019-02-19T10:23:48.974Z,6.17
2019-02-19T10:26:37.101Z,5.30
2019-02-19T10:29:25.372Z,5.23
2019-02-19T10:32:13.252Z,4.60
2019-02-19T10:35:00.878Z,5.27
2019-02-19T10:37:48.638Z,4.23
2019-02-19T10:40:39.765Z,5.23
2019-02-19T10:43:27.144Z,4.33
2019-02-19T10:46:15.389Z,4.87
2019-02-19T10:49:03.071Z,4.13
2019-02-19T10:51:51.833Z,4.53
2019-02-19T10:54:43.038Z,4.30
2019-02-19T10:57:30.856Z,4.97
2019-02-19T11:00:23.662Z,4.80
2019-02-19T11:03:11.981Z,4.97
2019-02-19T11:05:59.715Z,4.57
2019-02-19T11:08:50.579Z,4.70
2019-02-19T11:11:39.024Z,5.03
2019-02-19T11:14:26.639Z,4.77
2019-02-19T11:17:14.733Z,4.50
2019-02-19T11:20:02.755Z,4.93
2019-02-19T11:22:51.134Z,4.70
2019-02-19T11:25:39.156Z,4.00
2019-02-19T11:28:29.537Z,3.70
2019-02-19T11:31:17.917Z,3.93
2019-02-19T11:34:13.580Z,4.00
2019-02-19T11:37:06.651Z,3.83
2019-02-19T11:39:54.627Z,3.50
2019-02-19T11:42:42.406Z,3.70
2019-02-19T11:45:30.883Z,3.43
2019-02-19T11:48:19.221Z,3.33
2019-02-19T11:51:07.949Z,3.93
2019-02-19T11:53:56.134Z,3.13
2019-02-19T12:00:11.141Z,3.20
2019-02-19T12:03:08.985Z,3.50
2019-02-19T12:05:57.574Z,3.37
2019-02-19T12:08:46.372Z,2.93
2019-02-19T12:11:36.854Z,2.93
2019-02-19T12:14:24.785Z,2.93
2019-02-19T12:17:16.022Z,2.97
2019-02-19T12:20:06.897Z,2.90
2019-02-19T12:22:54.781Z,2.77
2019-02-19T12:25:44.551Z,3.10
2019-02-19T12:28:34.772Z,2.90
2019-02-19T12:31:22.555Z,2.97
2019-02-19T12:34:11.718Z,2.97
2019-02-19T12:36:59.829Z,2.90
2019-02-19T12:39:47.799Z,2.67
2019-02-19T12:42:36.083Z,3.00
2019-02-19T12:45:24.672Z,2.70
2019-02-19T12:48:12.701Z,2.70
2019-02-19T12:51:03.419Z,2.50
2019-02-19T12:53:53.593Z,2.60
2019-02-19T12:56:41.654Z,2.93
2019-02-19T12:59:29.848Z,2.90
2019-02-19T13:02:19.625Z,2.63
2019-02-19T13:05:08.775Z,3.10
2019-02-19T13:07:56.919Z,2.70
2019-02-19T13:10:44.913Z,3.00
2019-02-19T13:13:34.686Z,2.97
2019-02-19T13:16:24.681Z,3.00
2019-02-19T13:19:13.228Z,3.00
2019-02-19T13:22:07.594Z,3.30
2019-02-19T13:24:56.545Z,2.73
2019-02-19T13:27:44.171Z,3.47
2019-02-19T13:30:32.555Z,4.10
2019-02-19T13:33:20.404Z,3.73
2019-02-19T13:36:08.668Z,3.60
2019-02-19T13:38:56.120Z,3.53
2019-02-19T13:41:45.066Z,3.30
2019-02-19T13:44:34.579Z,3.00
2019-02-19T13:47:22.364Z,3.70
2019-02-19T13:50:15.401Z,3.27
2019-02-19T13:53:09.208Z,3.13
2019-02-19T13:56:02.347Z,3.27
2019-02-19T13:58:58.081Z,3.37
2019-02-19T14:01:45.970Z,2.70
2019-02-19T14:04:34.263Z,3.50
2019-02-19T14:07:22.208Z,2.57
2019-02-19T14:10:09.889Z,3.20
2019-02-19T14:12:58.008Z,3.33
2019-02-19T14:16:04.070Z,3.10
2019-02-19T14:18:54.322Z,3.10
2019-02-19T14:22:00.885Z,3.50
2019-02-19T14:25:25.449Z,3.10
2019-02-19T14:28:40.323Z,3.23
2019-02-19T14:31:40.988Z,3.70
2019-02-19T14:35:06.294Z,2.83
2019-02-19T14:38:15.626Z,2.90
2019-02-19T14:41:33.865Z,3.00
2019-02-19T14:44:43.831Z,2.87
2019-02-19T14:47:57.167Z,3.20
2019-02-19T14:51:09.955Z,3.10
2019-02-19T14:54:16.643Z,3.00
2019-02-19T14:57:26.306Z,3.00
2019-02-19T15:00:30.849Z,2.87
2019-02-19T15:03:43.503Z,2.70
2019-02-19T15:06:49.178Z,3.00
2019-02-19T15:10:01.637Z,2.73
2019-02-19T15:13:11.206Z,2.67
2019-02-19T15:16:22.719Z,2.80
2019-02-19T15:19:39.432Z,2.73
2019-02-19T15:22:35.989Z,2.40
2019-02-19T15:25:48.226Z,2.43
2019-02-19T15:29:10.711Z,2.53
2019-02-19T15:32:08.652Z,2.57
2019-02-19T15:35:17.106Z,2.40
2019-02-19T15:38:17.622Z,2.10
2019-02-19T15:41:16.460Z,1.80
2019-02-19T15:44:18.972Z,2.10
2019-02-19T15:47:28.600Z,1.90
2019-02-19T15:50:34.024Z,2.00
2019-02-19T15:53:43.627Z,1.77
2019-02-19T15:56:49.280Z,2.80
2019-02-19T15:59:56.165Z,1.80
2019-02-19T16:02:52.377Z,1.60
2019-02-19T16:06:04.402Z,1.50
2019-02-19T16:09:11.166Z,1.90
2019-02-19T16:12:08.171Z,1.93
2019-02-19T16:15:14.192Z,1.73
2019-02-19T16:18:19.863Z,2.20
2019-02-19T16:21:17.271Z,1.70
2019-02-19T16:24:15.924Z,1.83
2019-02-19T16:27:43.941Z,1.50
2019-02-19T16:31:01.775Z,1.93
2019-02-19T16:33:56.134Z,1.67
2019-02-19T16:36:50.135Z,1.60
2019-02-19T16:39:57.889Z,1.73
2019-02-19T16:43:04.681Z,1.70
2019-02-19T16:46:09.797Z,1.50
2019-02-19T16:49:15.959Z,1.97
2019-02-19T16:52:21.666Z,1.50
2019-02-19T16:55:33.283Z,1.77
2019-02-19T16:58:55.255Z,1.50
2019-02-19T17:09:35.189Z,1.87
2019-02-19T17:16:47.273Z,1.77
2019-02-19T17:19:57.092Z,1.90
2019-02-19T17:23:22.925Z,1.97
2019-02-19T17:26:42.688Z,2.47
2019-02-19T17:30:01.805Z,2.40
2019-02-19T17:33:14.550Z,2.30
2019-02-19T17:36:18.467Z,2.40
2019-02-19T17:39:39.779Z,2.00
2019-02-19T17:42:51.595Z,1.97
2019-02-19T17:52:55.537Z,1.57
2019-02-19T17:56:02.214Z,1.70
2019-02-19T17:59:11.582Z,1.67
2019-02-19T18:02:17.829Z,1.70
2019-02-19T18:05:23.240Z,1.80
2019-02-19T18:08:28.593Z,2.73
2019-02-19T18:11:42.201Z,2.13
2019-02-19T18:14:48.571Z,2.13
2019-02-19T18:17:57.726Z,1.50
2019-02-19T18:20:47.431Z,1.33
2019-02-19T18:23:36.490Z,1.30
2019-02-19T18:26:24.706Z,1.23
2019-02-19T18:29:13.285Z,1.20
2019-02-19T18:32:01.870Z,1.30
2019-02-19T18:34:49.437Z,1.30
2019-02-19T18:37:38.565Z,1.17
2019-02-19T18:40:27.143Z,1.93
2019-02-19T18:43:14.625Z,0.80
2019-02-19T18:46:02.818Z,1.17
2019-02-19T18:48:51.535Z,1.20
2019-02-19T18:51:39.516Z,1.30
2019-02-19T18:54:26.957Z,1.40
2019-02-19T18:57:16.622Z,1.17
2019-02-19T19:00:05.074Z,1.33
2019-02-19T19:02:53.028Z,1.53
2019-02-19T19:05:41.681Z,1.53
2019-02-19T19:08:29.596Z,1.57
2019-02-19T19:11:17.222Z,1.40
2019-02-19T19:14:05.330Z,1.60
2019-02-19T19:16:54.961Z,1.50
2019-02-19T19:19:43.380Z,1.37
2019-02-19T19:22:31.703Z,1.47
2019-02-19T19:25:19.698Z,1.90
2019-02-19T19:28:08.971Z,1.50
2019-02-19T19:30:57.003Z,1.73
2019-02-19T19:33:45.023Z,1.57
2019-02-19T19:36:33.058Z,1.50
2019-02-19T19:39:21.119Z,1.60
2019-02-19T19:42:08.919Z,1.50
2019-02-19T19:44:57.129Z,1.40
2019-02-19T19:47:45.039Z,1.60
2019-02-19T19:50:33.058Z,1.43
2019-02-19T19:53:20.679Z,1.57
2019-02-19T19:56:08.995Z,1.50
2019-02-19T19:58:57.729Z,1.60
2019-02-19T20:01:45.166Z,1.83
2019-02-19T20:04:34.313Z,1.40
2019-02-19T20:07:22.486Z,1.90
2019-02-19T20:10:10.312Z,1.90
2019-02-19T20:12:58.032Z,1.70
2019-02-19T20:15:46.233Z,1.87
2019-02-19T20:18:39.155Z,1.83
2019-02-19T20:21:26.803Z,1.83
2019-02-19T20:24:14.177Z,1.53
2019-02-19T20:27:02.336Z,1.60
2019-02-19T20:29:53.683Z,1.30
2019-02-19T20:32:42.383Z,1.50
2019-02-19T20:35:30.138Z,1.83
2019-02-19T20:38:17.829Z,1.90
2019-02-19T20:41:05.938Z,1.87
2019-02-19T20:43:53.953Z,1.77
2019-02-19T20:46:42.665Z,1.40
2019-02-19T20:49:30.802Z,1.57
2019-02-19T20:52:19.044Z,1.70
2019-02-19T20:55:07.244Z,1.57
2019-02-19T20:57:55.304Z,1.80
2019-02-19T21:00:43.263Z,1.30
2019-02-19T21:03:30.966Z,1.53
2019-02-19T21:06:19.006Z,1.50
2019-02-19T21:09:06.993Z,1.50
2019-02-19T21:11:55.322Z,1.50
2019-02-19T21:14:48.070Z,1.27
2019-02-19T21:17:36.670Z,1.70
2019-02-19T21:20:35.644Z,1.70
2019-02-19T21:23:26.002Z,1.70
2019-02-19T21:26:14.968Z,1.70
2019-02-19T21:29:03.116Z,1.50
2019-02-19T21:31:51.019Z,1.60
2019-02-19T21:34:39.080Z,1.80
2019-02-19T21:37:27.473Z,1.40
2019-02-19T21:40:15.991Z,1.67
2019-02-19T21:43:03.750Z,1.60
2019-02-19T21:45:51.873Z,1.80
2019-02-19T21:48:47.780Z,1.40
2019-02-19T21:51:29.547Z,1.20
2019-02-19T21:54:17.529Z,1.30
2019-02-19T21:57:05.125Z,1.90
2019-02-19T21:59:52.779Z,1.23
2019-02-19T22:02:40.942Z,1.30
2019-02-19T22:05:28.926Z,1.63
2019-02-19T22:08:16.876Z,1.50
2019-02-19T22:11:04.763Z,1.37
2019-02-19T22:13:52.995Z,1.60
2019-02-19T22:16:41.076Z,1.43
2019-02-19T22:19:30.345Z,1.33
2019-02-19T22:22:20.828Z,1.70
2019-02-19T22:25:09.078Z,1.70
2019-02-19T22:27:57.722Z,1.40
2019-02-19T22:30:46.302Z,1.70
2019-02-19T22:33:34.592Z,1.40
2019-02-19T22:36:22.476Z,1.30
2019-02-19T22:39:10.718Z,1.80
2019-02-19T22:41:58.863Z,1.70
2019-02-19T22:44:46.410Z,1.30
2019-02-19T22:47:34.516Z,1.50
2019-02-19T22:50:22.415Z,1.63
2019-02-19T22:53:28.934Z,1.60
2019-02-19T22:56:26.736Z,1.23
2019-02-19T22:59:15.480Z,1.53
2019-02-19T23:02:13.314Z,1.40
2019-02-19T23:05:01.343Z,1.53
2019-02-19T23:07:49.694Z,1.80
2019-02-19T23:10:38.041Z,1.53
2019-02-19T23:13:27.293Z,1.80
2019-02-19T23:16:15.385Z,1.57
2019-02-19T23:19:03.726Z,1.40
2019-02-19T23:21:51.682Z,1.40
2019-02-19T23:24:39.632Z,1.40
2019-02-19T23:27:27.677Z,1.60
2019-02-19T23:30:15.605Z,1.60
2019-02-19T23:33:04.421Z,1.50
2019-02-19T23:36:06.178Z,1.47
2019-02-19T23:38:53.582Z,1.60
2019-02-19T23:41:42.837Z,1.40
2019-02-19T23:44:30.916Z,1.30
2019-02-19T23:47:18.924Z,1.47
2019-02-19T23:50:08.220Z,1.43
2019-02-19T23:52:56.295Z,1.27
2019-02-19T23:55:44.199Z,1.53
2019-02-19T23:58:32.423Z,1.30
